This is the latest recevied weather packets stored in our database for station/object XE2CT-20. If no packets are shown the sender has not sent any weather packets the latest 10 day(s).
| Time | Temp. | Humidity | Pressure | Rain* | Wind** | Luminosity | Snow |
|---|---|---|---|---|---|---|---|
| 1777848087 | 33.89° C | 31% | 1007 hPa | - | - | - | - |
| 1777847186 | 33.33° C | 28% | 1004 hPa | - | - | - | - |
| 1777846285 | 32.22° C | 32% | 1007 hPa | - | - | - | - |
| 1777845384 | 31.67° C | 29% | 1006 hPa | - | - | - | - |
| 1777844483 | 31.67° C | 35% | 1010 hPa | - | - | - | - |
| 1777843582 | 31.67° C | 30% | 1006 hPa | - | - | - | - |
| 1777842681 | 31.11° C | 33% | 1009 hPa | - | - | - | - |
| 1777841780 | 31.67° C | 35% | 1010 hPa | - | - | - | - |
| 1777840879 | 31.67° C | 41% | 1015 hPa | - | - | - | - |
| 1777839978 | 32.22° C | 31% | 1008 hPa | - | - | - | - |
| 1777839077 | 32.22° C | 32% | 1009 hPa | - | - | - | - |
| 1777838176 | 32.22° C | 36% | 1012 hPa | - | - | - | - |
| 1777837275 | 31.67° C | 30% | 1007 hPa | - | - | - | - |
| 1777836374 | 31.67° C | 33% | 1008 hPa | - | - | - | - |
| 1777835473 | 30.56° C | 34% | 1009 hPa | - | - | - | - |
| 1777834571 | 30.56° C | 41% | 1014 hPa | - | - | - | - |
| 1777833670 | 28.89° C | 46% | 1017 hPa | - | - | - | - |
| 1777832769 | 28.89° C | 41% | 1013 hPa | - | - | - | - |
| 1777831868 | 29.44° C | 39% | 1012 hPa | - | - | - | - |
| 1777830967 | 28.33° C | 46% | 1017 hPa | - | - | - | - |
| 1777830065 | 27.78° C | 46% | 1017 hPa | - | - | - | - |
| 1777829164 | 28.33° C | 40% | 1013 hPa | - | - | - | - |
| 1777828263 | 27.78° C | 41% | 1014 hPa | - | - | - | - |
| 1777827362 | 28.33° C | 48% | 1018 hPa | - | - | - | - |
| 1777826461 | 28.89° C | 41% | 1014 hPa | - | - | - | - |
* Rain since midnight (hover to see other rain measurements)
** Current wind speed in m/s (hover to see current wind gust speed)